sensor_id;sensor_type;location;lat;lon;timestamp;pressure;altitude;pressure_sealevel;temperature;humidity
4858;BME280;58975;51.978;8.472;2023-11-21T00:02:46;99873.59;;;6.16;100.00
4858;BME280;58975;51.978;8.472;2023-11-21T00:07:43;99882.69;;;6.25;100.00
4858;BME280;58975;51.978;8.472;2023-11-21T00:12:40;99878.47;;;6.22;100.00
4858;BME280;58975;51.978;8.472;2023-11-21T00:17:38;99880.97;;;6.36;100.00
4858;BME280;58975;51.978;8.472;2023-11-21T00:22:35;99897.59;;;6.26;100.00
4858;BME280;58975;51.978;8.472;2023-11-21T00:27:32;99900.00;;;6.41;100.00
4858;BME280;58975;51.978;8.472;2023-11-21T00:32:29;99900.00;;;6.41;100.00
4858;BME280;58975;51.978;8.472;2023-11-21T00:37:25;99899.91;;;6.43;100.00
4858;BME280;58975;51.978;8.472;2023-11-21T00:42:22;99902.09;;;6.49;100.00
4858;BME280;58975;51.978;8.472;2023-11-21T00:47:19;99901.38;;;6.47;100.00
4858;BME280;58975;51.978;8.472;2023-11-21T00:52:15;99902.19;;;6.47;100.00
4858;BME280;58975;51.978;8.472;2023-11-21T00:57:12;99896.56;;;6.52;100.00
4858;BME280;58975;51.978;8.472;2023-11-21T01:02:09;99896.34;;;6.55;100.00
4858;BME280;58975;51.978;8.472;2023-11-21T01:07:07;99908.84;;;6.53;100.00
4858;BME280;58975;51.978;8.472;2023-11-21T01:12:04;99914.22;;;6.64;100.00
4858;BME280;58975;51.978;8.472;2023-11-21T01:17:00;99928.38;;;6.76;100.00
4858;BME280;58975;51.978;8.472;2023-11-21T01:21:57;99931.88;;;6.76;100.00
4858;BME280;58975;51.978;8.472;2023-11-21T01:26:54;99923.59;;;6.81;100.00
4858;BME280;58975;51.978;8.472;2023-11-21T01:31:50;99922.50;;;6.83;100.00
4858;BME280;58975;51.978;8.472;2023-11-21T01:36:48;99933.09;;;6.83;100.00
4858;BME280;58975;51.978;8.472;2023-11-21T01:41:44;99927.09;;;6.81;100.00
4858;BME280;58975;51.978;8.472;2023-11-21T01:46:41;99924.69;;;6.78;100.00
4858;BME280;58975;51.978;8.472;2023-11-21T01:51:38;99927.59;;;6.86;100.00
4858;BME280;58975;51.978;8.472;2023-11-21T01:56:35;99921.09;;;6.90;100.00
4858;BME280;58975;51.978;8.472;2023-11-21T02:01:32;99915.72;;;6.92;100.00
4858;BME280;58975;51.978;8.472;2023-11-21T02:06:28;99916.56;;;6.92;100.00
4858;BME280;58975;51.978;8.472;2023-11-21T02:11:27;99918.03;;;6.96;100.00
4858;BME280;58975;51.978;8.472;2023-11-21T02:16:23;99910.59;;;7.01;100.00
4858;BME280;58975;51.978;8.472;2023-11-21T02:21:20;99931.31;;;7.07;100.00
4858;BME280;58975;51.978;8.472;2023-11-21T02:26:16;99935.16;;;7.03;100.00
4858;BME280;58975;51.978;8.472;2023-11-21T02:31:13;99943.41;;;6.99;100.00
4858;BME280;58975;51.978;8.472;2023-11-21T02:36:10;99946.78;;;6.77;100.00
4858;BME280;58975;51.978;8.472;2023-11-21T02:41:06;99953.97;;;6.75;100.00
4858;BME280;58975;51.978;8.472;2023-11-21T02:46:02;99946.09;;;6.86;100.00
4858;BME280;58975;51.978;8.472;2023-11-21T02:50:59;99946.84;;;6.88;100.00
4858;BME280;58975;51.978;8.472;2023-11-21T02:55:55;99959.56;;;6.83;100.00
4858;BME280;58975;51.978;8.472;2023-11-21T03:00:52;99953.66;;;6.80;100.00
4858;BME280;58975;51.978;8.472;2023-11-21T03:05:50;99954.56;;;6.91;100.00
4858;BME280;58975;51.978;8.472;2023-11-21T03:10:46;99962.50;;;6.91;100.00
4858;BME280;58975;51.978;8.472;2023-11-21T03:15:43;99967.81;;;6.91;100.00
4858;BME280;58975;51.978;8.472;2023-11-21T03:20:39;99969.84;;;6.88;100.00
4858;BME280;58975;51.978;8.472;2023-11-21T03:25:36;99963.59;;;6.89;100.00
4858;BME280;58975;51.978;8.472;2023-11-21T03:30:32;99971.63;;;6.87;100.00
4858;BME280;58975;51.978;8.472;2023-11-21T03:35:28;99981.69;;;6.82;100.00
4858;BME280;58975;51.978;8.472;2023-11-21T03:40:25;99987.34;;;6.65;100.00
4858;BME280;58975;51.978;8.472;2023-11-21T03:45:21;99996.13;;;6.78;100.00
4858;BME280;58975;51.978;8.472;2023-11-21T03:50:18;100001.75;;;6.74;100.00
4858;BME280;58975;51.978;8.472;2023-11-21T03:55:14;100008.28;;;6.81;100.00
4858;BME280;58975;51.978;8.472;2023-11-21T04:00:11;100010.28;;;6.90;100.00
4858;BME280;58975;51.978;8.472;2023-11-21T04:05:09;100015.03;;;6.97;100.00
4858;BME280;58975;51.978;8.472;2023-11-21T04:10:07;100022.97;;;6.97;100.00
4858;BME280;58975;51.978;8.472;2023-11-21T04:15:09;100023.69;;;6.99;100.00
4858;BME280;58975;51.978;8.472;2023-11-21T04:20:06;100031.56;;;6.88;100.00
4858;BME280;58975;51.978;8.472;2023-11-21T04:25:05;100038.66;;;6.75;100.00
4858;BME280;58975;51.978;8.472;2023-11-21T04:30:02;100039.41;;;6.77;100.00
4858;BME280;58975;51.978;8.472;2023-11-21T04:34:58;100042.38;;;6.60;100.00
4858;BME280;58975;51.978;8.472;2023-11-21T04:39:54;100042.59;;;6.57;100.00
4858;BME280;58975;51.978;8.472;2023-11-21T04:44:51;100053.41;;;6.54;100.00
4858;BME280;58975;51.978;8.472;2023-11-21T04:49:48;100058.88;;;6.51;100.00
4858;BME280;58975;51.978;8.472;2023-11-21T04:54:45;100061.97;;;6.45;100.00
4858;BME280;58975;51.978;8.472;2023-11-21T04:59:41;100061.25;;;6.43;100.00
4858;BME280;58975;51.978;8.472;2023-11-21T05:04:39;100064.31;;;6.62;100.00
4858;BME280;58975;51.978;8.472;2023-11-21T05:09:36;100062.28;;;6.53;100.00
4858;BME280;58975;51.978;8.472;2023-11-21T05:14:33;100073.19;;;6.61;100.00
4858;BME280;58975;51.978;8.472;2023-11-21T05:19:29;100080.59;;;6.69;100.00
4858;BME280;58975;51.978;8.472;2023-11-21T05:24:26;100086.31;;;6.75;100.00
4858;BME280;58975;51.978;8.472;2023-11-21T05:29:22;100089.06;;;6.61;100.00
4858;BME280;58975;51.978;8.472;2023-11-21T05:34:19;100098.81;;;6.73;100.00
4858;BME280;58975;51.978;8.472;2023-11-21T05:39:16;100102.50;;;6.71;100.00
4858;BME280;58975;51.978;8.472;2023-11-21T05:44:17;100101.31;;;6.75;100.00
4858;BME280;58975;51.978;8.472;2023-11-21T05:49:14;100106.31;;;6.79;100.00
4858;BME280;58975;51.978;8.472;2023-11-21T05:54:11;100099.34;;;6.78;100.00
4858;BME280;58975;51.978;8.472;2023-11-21T05:59:08;100109.59;;;6.83;100.00
4858;BME280;58975;51.978;8.472;2023-11-21T06:04:05;100110.56;;;6.82;100.00
4858;BME280;58975;51.978;8.472;2023-11-21T06:09:02;100124.59;;;6.82;100.00
4858;BME280;58975;51.978;8.472;2023-11-21T06:13:58;100128.97;;;6.83;100.00
4858;BME280;58975;51.978;8.472;2023-11-21T06:18:55;100137.44;;;6.88;100.00
4858;BME280;58975;51.978;8.472;2023-11-21T06:23:51;100135.00;;;6.85;100.00
4858;BME280;58975;51.978;8.472;2023-11-21T06:28:49;100143.78;;;6.73;100.00
4858;BME280;58975;51.978;8.472;2023-11-21T06:33:47;100146.50;;;6.59;100.00
4858;BME280;58975;51.978;8.472;2023-11-21T06:38:44;100154.34;;;6.48;100.00
4858;BME280;58975;51.978;8.472;2023-11-21T06:43:42;100161.44;;;6.60;100.00
4858;BME280;58975;51.978;8.472;2023-11-21T06:48:43;100166.66;;;6.61;100.00
4858;BME280;58975;51.978;8.472;2023-11-21T06:53:40;100181.03;;;6.57;100.00
4858;BME280;58975;51.978;8.472;2023-11-21T06:58:36;100187.28;;;6.69;100.00
4858;BME280;58975;51.978;8.472;2023-11-21T07:03:33;100193.31;;;6.58;100.00
4858;BME280;58975;51.978;8.472;2023-11-21T07:08:29;100200.50;;;6.56;100.00
4858;BME280;58975;51.978;8.472;2023-11-21T07:13:26;100213.28;;;6.50;100.00
4858;BME280;58975;51.978;8.472;2023-11-21T07:18:22;100219.63;;;6.47;100.00
4858;BME280;58975;51.978;8.472;2023-11-21T07:23:19;100238.47;;;6.43;100.00
4858;BME280;58975;51.978;8.472;2023-11-21T07:28:16;100242.25;;;6.39;100.00
4858;BME280;58975;51.978;8.472;2023-11-21T07:33:12;100257.28;;;6.38;100.00
4858;BME280;58975;51.978;8.472;2023-11-21T07:38:09;100272.78;;;6.30;100.00
4858;BME280;58975;51.978;8.472;2023-11-21T07:43:05;100280.81;;;6.29;100.00
4858;BME280;58975;51.978;8.472;2023-11-21T07:48:02;100288.75;;;6.29;100.00
4858;BME280;58975;51.978;8.472;2023-11-21T07:52:59;100302.75;;;6.31;100.00
4858;BME280;58975;51.978;8.472;2023-11-21T07:57:56;100311.31;;;6.34;100.00
4858;BME280;58975;51.978;8.472;2023-11-21T08:02:52;100319.91;;;6.38;100.00
4858;BME280;58975;51.978;8.472;2023-11-21T08:07:49;100322.13;;;6.44;100.00
4858;BME280;58975;51.978;8.472;2023-11-21T08:12:46;100332.56;;;6.47;100.00
4858;BME280;58975;51.978;8.472;2023-11-21T08:17:44;100341.13;;;6.50;100.00
4858;BME280;58975;51.978;8.472;2023-11-21T08:22:40;100356.25;;;6.48;100.00
4858;BME280;58975;51.978;8.472;2023-11-21T08:27:37;100365.75;;;6.51;100.00
4858;BME280;58975;51.978;8.472;2023-11-21T08:32:33;100372.56;;;6.55;100.00
4858;BME280;58975;51.978;8.472;2023-11-21T08:37:30;100402.44;;;6.57;100.00
4858;BME280;58975;51.978;8.472;2023-11-21T08:42:29;100418.09;;;6.60;100.00
4858;BME280;58975;51.978;8.472;2023-11-21T08:47:26;100426.41;;;6.68;100.00
4858;BME280;58975;51.978;8.472;2023-11-21T08:52:23;100434.25;;;6.70;100.00
4858;BME280;58975;51.978;8.472;2023-11-21T08:57:20;100445.78;;;6.69;100.00
4858;BME280;58975;51.978;8.472;2023-11-21T09:02:17;100459.47;;;6.75;100.00
4858;BME280;58975;51.978;8.472;2023-11-21T09:07:13;100472.84;;;6.86;100.00
4858;BME280;58975;51.978;8.472;2023-11-21T09:12:10;100479.66;;;6.90;100.00
4858;BME280;58975;51.978;8.472;2023-11-21T09:17:09;100482.88;;;6.95;100.00
4858;BME280;58975;51.978;8.472;2023-11-21T09:22:08;100499.19;;;7.02;100.00
4858;BME280;58975;51.978;8.472;2023-11-21T09:27:04;100508.19;;;6.99;100.00
4858;BME280;58975;51.978;8.472;2023-11-21T09:32:01;100523.78;;;7.04;100.00
4858;BME280;58975;51.978;8.472;2023-11-21T09:36:58;100524.34;;;7.09;100.00
4858;BME280;58975;51.978;8.472;2023-11-21T09:47:14;100544.94;;;7.18;100.00
4858;BME280;58975;51.978;8.472;2023-11-21T09:52:17;100562.69;;;7.30;100.00
4858;BME280;58975;51.978;8.472;2023-11-21T09:57:14;100577.19;;;7.25;100.00
4858;BME280;58975;51.978;8.472;2023-11-21T10:02:12;100580.22;;;7.19;100.00
4858;BME280;58975;51.978;8.472;2023-11-21T10:07:11;100589.72;;;7.08;100.00
4858;BME280;58975;51.978;8.472;2023-11-21T10:12:09;100589.78;;;7.07;100.00
4858;BME280;58975;51.978;8.472;2023-11-21T10:17:12;100600.31;;;7.08;100.00
4858;BME280;58975;51.978;8.472;2023-11-21T10:22:12;100597.09;;;7.03;100.00
4858;BME280;58975;51.978;8.472;2023-11-21T10:27:09;100595.19;;;7.05;100.00
4858;BME280;58975;51.978;8.472;2023-11-21T10:32:06;100593.28;;;7.07;100.00
4858;BME280;58975;51.978;8.472;2023-11-21T10:37:12;100591.78;;;7.03;100.00
4858;BME280;58975;51.978;8.472;2023-11-21T10:42:08;100593.69;;;7.01;100.00
4858;BME280;58975;51.978;8.472;2023-11-21T10:47:08;100601.81;;;6.98;100.00
4858;BME280;58975;51.978;8.472;2023-11-21T10:52:04;100595.97;;;6.93;100.00
4858;BME280;58975;51.978;8.472;2023-11-21T10:57:02;100600.28;;;6.94;100.00
4858;BME280;58975;51.978;8.472;2023-11-21T11:02:01;100608.56;;;6.90;100.00
4858;BME280;58975;51.978;8.472;2023-11-21T11:07:03;100613.16;;;6.86;100.00
4858;BME280;58975;51.978;8.472;2023-11-21T11:12:02;100621.28;;;6.83;100.00
4858;BME280;58975;51.978;8.472;2023-11-21T11:17:00;100626.69;;;6.82;100.00
4858;BME280;58975;51.978;8.472;2023-11-21T11:37:23;100641.09;;;6.48;100.00
4858;BME280;58975;51.978;8.472;2023-11-21T11:42:21;100639.56;;;6.44;100.00
4858;BME280;58975;51.978;8.472;2023-11-21T11:47:30;100632.97;;;6.37;100.00
4858;BME280;58975;51.978;8.472;2023-11-21T11:57:33;100633.63;;;6.40;100.00
4858;BME280;58975;51.978;8.472;2023-11-21T12:02:31;100625.56;;;6.28;100.00
4858;BME280;58975;51.978;8.472;2023-11-21T12:07:41;100619.13;;;6.17;100.00
4858;BME280;58975;51.978;8.472;2023-11-21T12:12:42;100614.53;;;6.35;100.00
4858;BME280;58975;51.978;8.472;2023-11-21T12:17:40;100608.75;;;6.29;100.00
4858;BME280;58975;51.978;8.472;2023-11-21T12:22:38;100606.84;;;6.16;100.00
4858;BME280;58975;51.978;8.472;2023-11-21T12:27:35;100589.56;;;6.25;100.00
4858;BME280;58975;51.978;8.472;2023-11-21T12:32:31;100588.50;;;6.13;100.00
4858;BME280;58975;51.978;8.472;2023-11-21T12:37:28;100581.31;;;6.15;100.00
4858;BME280;58975;51.978;8.472;2023-11-21T12:42:25;100564.78;;;6.12;100.00
4858;BME280;58975;51.978;8.472;2023-11-21T12:47:21;100564.91;;;6.25;100.00
4858;BME280;58975;51.978;8.472;2023-11-21T12:52:18;100546.44;;;6.39;100.00
4858;BME280;58975;51.978;8.472;2023-11-21T12:57:14;100544.53;;;6.41;100.00
4858;BME280;58975;51.978;8.472;2023-11-21T13:02:12;100539.06;;;6.44;100.00
4858;BME280;58975;51.978;8.472;2023-11-21T13:07:11;100530.94;;;6.61;100.00
4858;BME280;58975;51.978;8.472;2023-11-21T13:12:10;100521.28;;;6.60;100.00
4858;BME280;58975;51.978;8.472;2023-11-21T13:17:08;100511.53;;;6.89;100.00
4858;BME280;58975;51.978;8.472;2023-11-21T13:22:06;100529.94;;;6.90;100.00
4858;BME280;58975;51.978;8.472;2023-11-21T13:27:07;100531.19;;;6.71;100.00
4858;BME280;58975;51.978;8.472;2023-11-21T13:32:03;100536.59;;;6.41;100.00
4858;BME280;58975;51.978;8.472;2023-11-21T13:37:04;100547.19;;;6.27;100.00
4858;BME280;58975;51.978;8.472;2023-11-21T13:42:04;100552.81;;;6.21;100.00
4858;BME280;58975;51.978;8.472;2023-11-21T13:47:02;100557.38;;;6.33;100.00
4858;BME280;58975;51.978;8.472;2023-11-21T13:51:58;100562.66;;;6.18;100.00
4858;BME280;58975;51.978;8.472;2023-11-21T13:56:58;100565.50;;;6.30;100.00
4858;BME280;58975;51.978;8.472;2023-11-21T14:01:56;100576.53;;;6.22;100.00
4858;BME280;58975;51.978;8.472;2023-11-21T14:06:57;100581.84;;;6.22;100.00
4858;BME280;58975;51.978;8.472;2023-11-21T14:11:57;100595.50;;;6.14;100.00
4858;BME280;58975;51.978;8.472;2023-11-21T14:16:54;100594.47;;;6.17;100.00
4858;BME280;58975;51.978;8.472;2023-11-21T14:21:52;100596.53;;;6.12;100.00
4858;BME280;58975;51.978;8.472;2023-11-21T14:26:49;100607.09;;;6.12;100.00
4858;BME280;58975;51.978;8.472;2023-11-21T14:31:46;100613.44;;;6.09;100.00
4858;BME280;58975;51.978;8.472;2023-11-21T14:36:43;100616.72;;;5.99;100.00
4858;BME280;58975;51.978;8.472;2023-11-21T14:41:40;100619.94;;;5.88;100.00
4858;BME280;58975;51.978;8.472;2023-11-21T14:46:39;100625.66;;;5.81;100.00
4858;BME280;58975;51.978;8.472;2023-11-21T14:51:36;100637.34;;;5.77;100.00
4858;BME280;58975;51.978;8.472;2023-11-21T14:56:53;100648.88;;;5.76;100.00
4858;BME280;58975;51.978;8.472;2023-11-21T15:01:49;100652.63;;;5.71;100.00
4858;BME280;58975;51.978;8.472;2023-11-21T15:06:52;100657.78;;;5.73;100.00
4858;BME280;58975;51.978;8.472;2023-11-21T15:11:52;100671.59;;;5.78;100.00
4858;BME280;58975;51.978;8.472;2023-11-21T15:16:52;100682.44;;;5.73;100.00
4858;BME280;58975;51.978;8.472;2023-11-21T15:21:53;100693.38;;;5.67;100.00
4858;BME280;58975;51.978;8.472;2023-11-21T15:26:50;100695.81;;;5.70;100.00
4858;BME280;58975;51.978;8.472;2023-11-21T15:31:47;100693.44;;;5.66;100.00
4858;BME280;58975;51.978;8.472;2023-11-21T15:36:45;100705.72;;;5.67;100.00
4858;BME280;58975;51.978;8.472;2023-11-21T15:41:41;100708.97;;;5.56;100.00
4858;BME280;58975;51.978;8.472;2023-11-21T15:46:38;100725.97;;;5.51;100.00
4858;BME280;58975;51.978;8.472;2023-11-21T15:51:42;100733.16;;;5.49;100.00
4858;BME280;58975;51.978;8.472;2023-11-21T15:56:41;100750.16;;;5.43;100.00
4858;BME280;58975;51.978;8.472;2023-11-21T16:01:38;100750.16;;;5.43;100.00
4858;BME280;58975;51.978;8.472;2023-11-21T16:06:39;100752.88;;;5.42;100.00
4858;BME280;58975;51.978;8.472;2023-11-21T16:11:37;100765.34;;;5.40;100.00
4858;BME280;58975;51.978;8.472;2023-11-21T16:16:34;100774.34;;;5.36;100.00
4858;BME280;58975;51.978;8.472;2023-11-21T16:21:30;100785.69;;;5.38;100.00
4858;BME280;58975;51.978;8.472;2023-11-21T16:26:27;100793.75;;;5.35;100.00
4858;BME280;58975;51.978;8.472;2023-11-21T16:31:24;100800.34;;;5.43;100.00
4858;BME280;58975;51.978;8.472;2023-11-21T16:36:20;100802.38;;;5.38;100.00
4858;BME280;58975;51.978;8.472;2023-11-21T16:46:23;100821.19;;;5.32;100.00
4858;BME280;58975;51.978;8.472;2023-11-21T16:51:19;100848.59;;;5.30;100.00
4858;BME280;58975;51.978;8.472;2023-11-21T16:56:16;100845.97;;;5.30;100.00
4858;BME280;58975;51.978;8.472;2023-11-21T17:01:13;100859.25;;;5.28;100.00
4858;BME280;58975;51.978;8.472;2023-11-21T17:06:09;100859.44;;;5.25;100.00
4858;BME280;58975;51.978;8.472;2023-11-21T17:11:06;100868.09;;;5.27;100.00
4858;BME280;58975;51.978;8.472;2023-11-21T17:16:10;100882.16;;;5.28;100.00
4858;BME280;58975;51.978;8.472;2023-11-21T17:21:07;100884.97;;;5.24;100.00
4858;BME280;58975;51.978;8.472;2023-11-21T17:26:09;100899.97;;;5.24;100.00
4858;BME280;58975;51.978;8.472;2023-11-21T17:31:11;100921.16;;;5.22;100.00
4858;BME280;58975;51.978;8.472;2023-11-21T17:36:09;100924.88;;;5.18;100.00
4858;BME280;58975;51.978;8.472;2023-11-21T17:41:06;100927.84;;;5.12;100.00
4858;BME280;58975;51.978;8.472;2023-11-21T17:46:02;100923.78;;;5.05;100.00
4858;BME280;58975;51.978;8.472;2023-11-21T17:50:59;100934.41;;;5.04;100.00
4858;BME280;58975;51.978;8.472;2023-11-21T17:55:55;100953.75;;;5.04;100.00
4858;BME280;58975;51.978;8.472;2023-11-21T18:00:52;100963.38;;;5.05;100.00
4858;BME280;58975;51.978;8.472;2023-11-21T18:05:49;100965.06;;;5.06;100.00
4858;BME280;58975;51.978;8.472;2023-11-21T18:10:45;100975.63;;;5.06;100.00
4858;BME280;58975;51.978;8.472;2023-11-21T18:15:43;100985.44;;;5.04;100.00
4858;BME280;58975;51.978;8.472;2023-11-21T18:20:40;100988.78;;;5.08;100.00
4858;BME280;58975;51.978;8.472;2023-11-21T18:25:37;100999.53;;;5.03;100.00
4858;BME280;58975;51.978;8.472;2023-11-21T18:30:35;101004.81;;;5.03;100.00
4858;BME280;58975;51.978;8.472;2023-11-21T18:35:31;101008.25;;;5.05;100.00
4858;BME280;58975;51.978;8.472;2023-11-21T18:40:28;101026.81;;;5.04;100.00
4858;BME280;58975;51.978;8.472;2023-11-21T18:45:25;101031.22;;;5.03;100.00
4858;BME280;58975;51.978;8.472;2023-11-21T18:50:22;101041.78;;;5.03;100.00
4858;BME280;58975;51.978;8.472;2023-11-21T18:55:19;101049.84;;;5.00;100.00
4858;BME280;58975;51.978;8.472;2023-11-21T19:00:16;101062.91;;;5.03;100.00
4858;BME280;58975;51.978;8.472;2023-11-21T19:05:13;101060.31;;;5.02;100.00
4858;BME280;58975;51.978;8.472;2023-11-21T19:10:10;101059.19;;;5.07;100.00
4858;BME280;58975;51.978;8.472;2023-11-21T19:15:07;101076.25;;;5.00;100.00
4858;BME280;58975;51.978;8.472;2023-11-21T19:20:06;101078.53;;;4.89;100.00
4858;BME280;58975;51.978;8.472;2023-11-21T19:25:05;101088.28;;;4.87;100.00
4858;BME280;58975;51.978;8.472;2023-11-21T19:30:05;101090.31;;;4.82;100.00
4858;BME280;58975;51.978;8.472;2023-11-21T19:35:04;101094.63;;;4.83;100.00
4858;BME280;58975;51.978;8.472;2023-11-21T19:40:01;101102.75;;;4.78;100.00
4858;BME280;58975;51.978;8.472;2023-11-21T19:44:57;101107.22;;;4.78;100.00
4858;BME280;58975;51.978;8.472;2023-11-21T19:49:53;101110.09;;;4.72;100.00
4858;BME280;58975;51.978;8.472;2023-11-21T19:54:51;101109.97;;;4.75;100.00
4858;BME280;58975;51.978;8.472;2023-11-21T19:59:49;101117.25;;;4.70;100.00
4858;BME280;58975;51.978;8.472;2023-11-21T20:04:46;101120.94;;;4.66;100.00
4858;BME280;58975;51.978;8.472;2023-11-21T20:09:42;101125.63;;;4.59;100.00
4858;BME280;58975;51.978;8.472;2023-11-21T20:14:38;101131.84;;;4.58;100.00
4858;BME280;58975;51.978;8.472;2023-11-21T20:19:35;101140.81;;;4.54;100.00
4858;BME280;58975;51.978;8.472;2023-11-21T20:24:32;101152.41;;;4.50;100.00
4858;BME280;58975;51.978;8.472;2023-11-21T20:29:32;101163.69;;;4.54;100.00
4858;BME280;58975;51.978;8.472;2023-11-21T20:34:29;101174.88;;;4.59;100.00
4858;BME280;58975;51.978;8.472;2023-11-21T20:39:26;101173.38;;;4.53;100.00
4858;BME280;58975;51.978;8.472;2023-11-21T20:44:22;101168.81;;;4.57;100.00
4858;BME280;58975;51.978;8.472;2023-11-21T20:49:19;101168.88;;;4.55;100.00
4858;BME280;58975;51.978;8.472;2023-11-21T20:54:17;101178.31;;;4.61;100.00
4858;BME280;58975;51.978;8.472;2023-11-21T20:59:13;101170.81;;;4.52;100.00
4858;BME280;58975;51.978;8.472;2023-11-21T21:04:10;101178.56;;;4.55;100.00
4858;BME280;58975;51.978;8.472;2023-11-21T21:09:06;101185.03;;;4.48;100.00
4858;BME280;58975;51.978;8.472;2023-11-21T21:14:05;101196.59;;;4.45;100.00
4858;BME280;58975;51.978;8.472;2023-11-21T21:19:02;101195.72;;;4.45;100.00
4858;BME280;58975;51.978;8.472;2023-11-21T21:24:00;101209.84;;;4.44;100.00
4858;BME280;58975;51.978;8.472;2023-11-21T21:28:57;101212.59;;;4.41;100.00
4858;BME280;58975;51.978;8.472;2023-11-21T21:33:54;101222.63;;;4.33;100.00
4858;BME280;58975;51.978;8.472;2023-11-21T21:38:50;101224.53;;;4.29;100.00
4858;BME280;58975;51.978;8.472;2023-11-21T21:43:47;101233.03;;;4.36;100.00
4858;BME280;58975;51.978;8.472;2023-11-21T21:48:45;101231.34;;;4.35;100.00
4858;BME280;58975;51.978;8.472;2023-11-21T21:53:42;101233.44;;;4.26;100.00
4858;BME280;58975;51.978;8.472;2023-11-21T21:58:40;101239.19;;;4.14;100.00
4858;BME280;58975;51.978;8.472;2023-11-21T22:03:37;101239.34;;;4.11;100.00
4858;BME280;58975;51.978;8.472;2023-11-21T22:08:33;101250.59;;;4.15;100.00
4858;BME280;58975;51.978;8.472;2023-11-21T22:13:30;101255.03;;;4.14;100.00
4858;BME280;58975;51.978;8.472;2023-11-21T22:18:27;101265.06;;;4.05;100.00
4858;BME280;58975;51.978;8.472;2023-11-21T22:23:23;101275.00;;;3.98;100.00
4858;BME280;58975;51.978;8.472;2023-11-21T22:28:20;101279.75;;;3.89;100.00
4858;BME280;58975;51.978;8.472;2023-11-21T22:33:16;101289.38;;;3.90;100.00
4858;BME280;58975;51.978;8.472;2023-11-21T22:38:13;101286.63;;;3.93;100.00
4858;BME280;58975;51.978;8.472;2023-11-21T22:43:12;101302.69;;;3.87;100.00
4858;BME280;58975;51.978;8.472;2023-11-21T22:48:09;101298.19;;;3.89;100.00
4858;BME280;58975;51.978;8.472;2023-11-21T22:53:06;101301.03;;;3.84;100.00
4858;BME280;58975;51.978;8.472;2023-11-21T22:58:03;101308.19;;;3.80;100.00
4858;BME280;58975;51.978;8.472;2023-11-21T23:02:59;101309.28;;;3.75;100.00
4858;BME280;58975;51.978;8.472;2023-11-21T23:07:56;101315.00;;;3.63;100.00
4858;BME280;58975;51.978;8.472;2023-11-21T23:12:53;101313.00;;;3.46;100.00
4858;BME280;58975;51.978;8.472;2023-11-21T23:17:52;101310.34;;;3.23;100.00
4858;BME280;58975;51.978;8.472;2023-11-21T23:22:49;101309.22;;;3.05;100.00
4858;BME280;58975;51.978;8.472;2023-11-21T23:27:47;101309.00;;;2.86;100.00
4858;BME280;58975;51.978;8.472;2023-11-21T23:32:43;101322.75;;;2.70;100.00
4858;BME280;58975;51.978;8.472;2023-11-21T23:37:40;101326.69;;;2.57;100.00
4858;BME280;58975;51.978;8.472;2023-11-21T23:42:37;101339.03;;;2.55;100.00
4858;BME280;58975;51.978;8.472;2023-11-21T23:47:33;101349.94;;;2.43;100.00
4858;BME280;58975;51.978;8.472;2023-11-21T23:52:30;101366.63;;;2.42;100.00
4858;BME280;58975;51.978;8.472;2023-11-21T23:57:26;101363.47;;;2.30;100.00
